Terminal Aerodrome Forecast
Issued by NWS Corpus Christi, TX

Home | Current Version | Previous Version | Text Only | Print | Product List | Glossary On
Versions: 1 2 3 4 5 6 7 8 9 10 11 12 13 14 15 16
252
FTUS44 KCRP 181704 AAC
TAFCRP
TAF AMD
KCRP 181704Z 1817/1912 VRB03KT 5SM -RA BR VCSH SCT006 BKN080
      TEMPO 1817/1819 3SM -SHRA BR BKN006 OVC060
     FM181900 10005KT 6SM -RA BR VCSH SCT012 BKN060
      TEMPO 1819/1821 3SM TSRA BR BKN012CB OVC050
     FM190100 11006KT 4SM BR OVC006
     FM190800 07006KT 2SM BR VCSH OVC006=

USA.gov is the U.S. government's official web portal to all federal, state and local government web resources and services.